createdAt,value
2023-01-08T00:00:02.841Z,1004.10
2023-01-08T00:01:02.883Z,1004.10
2023-01-08T00:02:02.863Z,1004.09
2023-01-08T00:03:02.971Z,1004.06
2023-01-08T00:04:02.966Z,1004.09
2023-01-08T00:05:02.905Z,1004.01
2023-01-08T00:06:02.927Z,1003.99
2023-01-08T00:07:02.926Z,1003.97
2023-01-08T00:08:02.937Z,1003.95
2023-01-08T00:09:02.957Z,1003.93
2023-01-08T00:10:02.966Z,1003.96
2023-01-08T00:11:02.976Z,1003.91
2023-01-08T00:12:02.995Z,1003.93
2023-01-08T00:13:02.998Z,1003.91
2023-01-08T00:14:03.017Z,1003.92
2023-01-08T00:15:03.025Z,1003.96
2023-01-08T00:16:03.042Z,1004.00
2023-01-08T00:17:03.051Z,1004.03
2023-01-08T00:18:04.118Z,1004.06
2023-01-08T00:19:03.070Z,1004.06
2023-01-08T00:20:03.083Z,1004.05
2023-01-08T00:21:03.104Z,1004.06
2023-01-08T00:22:03.108Z,1003.99
2023-01-08T00:23:03.122Z,1003.97
2023-01-08T00:24:03.132Z,1004.00
2023-01-08T00:25:03.147Z,1003.96
2023-01-08T00:26:03.156Z,1003.97
2023-01-08T00:27:03.178Z,1003.88
2023-01-08T00:28:03.184Z,1003.80
2023-01-08T00:29:03.193Z,1003.81
2023-01-08T00:30:03.209Z,1003.78
2023-01-08T00:31:03.847Z,1003.74
2023-01-08T00:32:03.228Z,1003.79
2023-01-08T00:33:03.246Z,1003.73
2023-01-08T00:34:03.266Z,1003.73
2023-01-08T00:35:03.266Z,1003.69
2023-01-08T00:36:03.276Z,1003.70
2023-01-08T00:37:03.289Z,1003.67
2023-01-08T00:38:03.308Z,1003.65
2023-01-08T00:39:03.314Z,1003.66
2023-01-08T00:40:03.324Z,1003.62
2023-01-08T00:41:03.343Z,1003.58
2023-01-08T00:42:03.350Z,1003.57
2023-01-08T00:43:03.371Z,1003.56
2023-01-08T00:44:03.370Z,1003.58
2023-01-08T00:45:03.391Z,1003.53
2023-01-08T00:46:03.483Z,1003.56
2023-01-08T00:47:03.409Z,1003.60
2023-01-08T00:48:03.419Z,1003.62
2023-01-08T00:49:03.439Z,1003.59
2023-01-08T00:50:03.450Z,1003.56
2023-01-08T00:51:03.454Z,1003.56
2023-01-08T00:52:03.467Z,1003.59
2023-01-08T00:53:03.488Z,1003.60
2023-01-08T00:54:03.510Z,1003.58
2023-01-08T00:55:03.517Z,1003.54
2023-01-08T00:56:03.514Z,1003.55
2023-01-08T00:57:03.539Z,1003.54
2023-01-08T00:58:03.542Z,1003.48
2023-01-08T00:59:03.550Z,1003.47
2023-01-08T01:00:03.569Z,1003.47
2023-01-08T01:01:03.627Z,1003.43
2023-01-08T01:02:03.725Z,1003.47
2023-01-08T01:03:03.604Z,1003.40
2023-01-08T01:04:03.670Z,1003.40
2023-01-08T01:05:03.620Z,1003.33
2023-01-08T01:06:03.646Z,1003.36
2023-01-08T01:07:03.647Z,1003.31
2023-01-08T01:08:03.674Z,1003.29
2023-01-08T01:09:03.669Z,1003.34
2023-01-08T01:10:03.679Z,1003.34
2023-01-08T01:11:03.699Z,1003.36
2023-01-08T01:12:03.714Z,1003.37
2023-01-08T01:13:03.719Z,1003.36
2023-01-08T01:14:03.734Z,1003.35
2023-01-08T01:15:03.737Z,1003.36
2023-01-08T01:16:03.758Z,1003.32
2023-01-08T01:17:03.810Z,1003.35
2023-01-08T01:18:03.785Z,1003.35
2023-01-08T01:19:03.798Z,1003.41
2023-01-08T01:20:03.798Z,1003.43
2023-01-08T01:21:03.813Z,1003.43
2023-01-08T01:22:03.820Z,1003.38
2023-01-08T01:23:03.837Z,1003.37
2023-01-08T01:24:03.843Z,1003.33
2023-01-08T01:25:03.852Z,1003.37
2023-01-08T01:26:03.865Z,1003.38
2023-01-08T01:27:03.887Z,1003.37
2023-01-08T01:28:03.916Z,1003.34
2023-01-08T01:29:03.897Z,1003.33
2023-01-08T01:30:03.912Z,1003.34
2023-01-08T01:31:03.981Z,1003.30
2023-01-08T01:32:03.940Z,1003.28
2023-01-08T01:33:03.947Z,1003.23
2023-01-08T01:34:03.956Z,1003.21
2023-01-08T01:35:03.979Z,1003.23
2023-01-08T01:36:03.977Z,1003.27
2023-01-08T01:37:03.992Z,1003.31
2023-01-08T01:38:04.004Z,1003.34
2023-01-08T01:39:04.013Z,1003.35
2023-01-08T01:40:04.027Z,1003.37
2023-01-08T01:41:04.036Z,1003.39
2023-01-08T01:42:04.061Z,1003.40
2023-01-08T01:43:04.063Z,1003.42
2023-01-08T01:44:04.072Z,1003.40
2023-01-08T01:45:04.081Z,1003.37
2023-01-08T01:46:04.197Z,1003.34
2023-01-08T01:47:04.104Z,1003.32
2023-01-08T01:48:04.121Z,1003.27
2023-01-08T01:49:04.129Z,1003.24
2023-01-08T01:50:04.143Z,1003.24
2023-01-08T01:51:04.154Z,1003.12
2023-01-08T01:52:04.162Z,1003.10
2023-01-08T01:53:04.173Z,1003.09
2023-01-08T01:54:04.189Z,1003.03
2023-01-08T01:55:04.196Z,1002.98
2023-01-08T01:56:04.214Z,1003.01
2023-01-08T01:57:04.221Z,1003.10
2023-01-08T01:58:04.240Z,1003.14
2023-01-08T01:59:04.250Z,1003.11
2023-01-08T02:00:04.249Z,1003.09
2023-01-08T02:01:04.360Z,1003.11
2023-01-08T02:02:04.442Z,1003.07
2023-01-08T02:03:04.283Z,1003.09
2023-01-08T02:04:04.400Z,1003.09
2023-01-08T02:05:04.319Z,1003.07
2023-01-08T02:06:04.323Z,1003.03
2023-01-08T02:07:04.347Z,1002.99
2023-01-08T02:08:04.341Z,1003.02
2023-01-08T02:09:04.356Z,1003.02
2023-01-08T02:10:04.361Z,1003.02
2023-01-08T02:11:04.373Z,1003.01
2023-01-08T02:12:04.388Z,1002.98
2023-01-08T02:13:04.402Z,1002.95
2023-01-08T02:14:04.416Z,1002.98
2023-01-08T02:15:04.415Z,1002.94
2023-01-08T02:16:04.431Z,1002.92
2023-01-08T02:17:04.491Z,1002.87
2023-01-08T02:18:04.449Z,1002.94
2023-01-08T02:19:04.460Z,1002.86
2023-01-08T02:20:04.469Z,1002.84
2023-01-08T02:21:04.481Z,1002.78
2023-01-08T02:22:04.497Z,1002.76
2023-01-08T02:23:04.501Z,1002.75
2023-01-08T02:24:04.511Z,1002.67
2023-01-08T02:25:04.527Z,1002.61
2023-01-08T02:26:04.544Z,1002.63
2023-01-08T02:27:04.549Z,1002.60
2023-01-08T02:28:04.552Z,1002.62
2023-01-08T02:29:04.571Z,1002.66
2023-01-08T02:30:04.583Z,1002.64
2023-01-08T02:31:04.665Z,1002.64
2023-01-08T02:32:04.600Z,1002.64
2023-01-08T02:33:04.607Z,1002.61
2023-01-08T02:34:04.617Z,1002.60
2023-01-08T02:35:04.643Z,1002.57
2023-01-08T02:36:04.638Z,1002.58
2023-01-08T02:37:04.650Z,1002.63
2023-01-08T02:38:04.662Z,1002.64
2023-01-08T02:39:04.670Z,1002.63
2023-01-08T02:40:04.695Z,1002.61
2023-01-08T02:41:04.694Z,1002.60
2023-01-08T02:42:04.705Z,1002.58
2023-01-08T02:43:04.716Z,1002.56
2023-01-08T02:44:04.725Z,1002.52
2023-01-08T02:45:04.739Z,1002.48
2023-01-08T02:46:04.836Z,1002.53
2023-01-08T02:47:04.760Z,1002.47
2023-01-08T02:48:04.766Z,1002.46
2023-01-08T02:49:04.796Z,1002.45
2023-01-08T02:50:04.787Z,1002.40
2023-01-08T02:51:04.801Z,1002.34
2023-01-08T02:52:04.810Z,1002.43
2023-01-08T02:53:04.822Z,1002.42
2023-01-08T02:54:04.837Z,1002.41
2023-01-08T02:55:04.859Z,1002.34
2023-01-08T02:56:04.853Z,1002.28
2023-01-08T02:57:04.868Z,1002.26
2023-01-08T02:58:04.875Z,1002.23
2023-01-08T02:59:04.889Z,1002.24
2023-01-08T03:00:04.891Z,1002.27
2023-01-08T03:01:04.958Z,1002.27
2023-01-08T03:02:05.060Z,1002.27
2023-01-08T03:03:04.962Z,1002.22
2023-01-08T03:04:04.968Z,1002.17
2023-01-08T03:05:04.952Z,1002.15
2023-01-08T03:06:04.957Z,1002.13
2023-01-08T03:07:04.967Z,1002.14
2023-01-08T03:08:04.979Z,1002.14
2023-01-08T03:09:04.986Z,1002.17
2023-01-08T03:10:05.003Z,1002.18
2023-01-08T03:11:05.024Z,1002.18
2023-01-08T03:12:05.020Z,1002.22
2023-01-08T03:13:05.029Z,1002.22
2023-01-08T03:14:05.038Z,1002.18
2023-01-08T03:15:05.072Z,1002.17
2023-01-08T03:16:05.062Z,1002.18
2023-01-08T03:17:05.093Z,1002.25
2023-01-08T03:18:05.081Z,1002.24
2023-01-08T03:19:05.091Z,1002.20
2023-01-08T03:20:05.121Z,1002.18
2023-01-08T03:21:05.113Z,1002.11
2023-01-08T03:22:05.122Z,1002.07
2023-01-08T03:23:05.133Z,1002.06
2023-01-08T03:24:05.143Z,1002.06
2023-01-08T03:25:05.157Z,1002.05
2023-01-08T03:26:05.166Z,1002.10
2023-01-08T03:27:05.182Z,1002.09
2023-01-08T03:28:05.180Z,1002.07
2023-01-08T03:29:05.203Z,1002.07
2023-01-08T03:30:05.207Z,1002.01
2023-01-08T03:31:05.311Z,1002.01
2023-01-08T03:32:05.232Z,1002.01
2023-01-08T03:33:05.236Z,1002.00
2023-01-08T03:34:05.251Z,1001.99
2023-01-08T03:35:05.291Z,1002.00
2023-01-08T03:36:05.267Z,1002.00
2023-01-08T03:37:05.284Z,1001.97
2023-01-08T03:38:05.298Z,1001.96
2023-01-08T03:39:05.305Z,1001.96
2023-01-08T03:40:05.322Z,1001.91
2023-01-08T03:41:05.325Z,1001.95
2023-01-08T03:42:05.331Z,1001.88
2023-01-08T03:43:05.343Z,1001.92
2023-01-08T03:44:05.349Z,1001.92
2023-01-08T03:45:05.357Z,1001.90
2023-01-08T03:46:05.433Z,1001.87
2023-01-08T03:47:05.383Z,1001.87
2023-01-08T03:48:05.390Z,1001.89
2023-01-08T03:49:05.408Z,1001.91
2023-01-08T03:50:05.416Z,1002.00
2023-01-08T03:51:05.426Z,1002.02
2023-01-08T03:52:05.430Z,1002.06
2023-01-08T03:53:05.458Z,1002.08
2023-01-08T03:54:05.457Z,1002.06
2023-01-08T03:55:05.463Z,1002.02
2023-01-08T03:56:05.485Z,1002.00
2023-01-08T03:57:05.488Z,1001.99
2023-01-08T03:58:05.493Z,1001.99
2023-01-08T03:59:05.504Z,1002.00
2023-01-08T04:00:05.511Z,1002.04
2023-01-08T04:01:05.525Z,1002.05
2023-01-08T04:02:05.653Z,1002.08
2023-01-08T04:03:06.039Z,1002.05
2023-01-08T04:04:05.575Z,1002.04
2023-01-08T04:05:05.570Z,1002.10
2023-01-08T04:06:05.583Z,1002.11
2023-01-08T04:07:05.589Z,1002.10
2023-01-08T04:08:05.608Z,1002.04
2023-01-08T04:09:05.633Z,1002.02
2023-01-08T04:10:05.619Z,1002.05
2023-01-08T04:11:05.628Z,1002.02
2023-01-08T04:12:05.639Z,1001.97
2023-01-08T04:13:05.662Z,1001.96
2023-01-08T04:14:05.677Z,1001.97
2023-01-08T04:15:05.688Z,1001.97
2023-01-08T04:16:05.746Z,1001.88
2023-01-08T04:17:05.688Z,1001.92
2023-01-08T04:18:05.700Z,1001.95
2023-01-08T04:19:05.711Z,1001.96
2023-01-08T04:20:05.718Z,1001.98
2023-01-08T04:21:05.733Z,1002.04
2023-01-08T04:22:05.742Z,1002.01
2023-01-08T04:23:05.752Z,1002.00
2023-01-08T04:24:05.761Z,1001.95
2023-01-08T04:25:05.778Z,1001.98
2023-01-08T04:26:05.785Z,1001.99
2023-01-08T04:27:05.791Z,1001.95
2023-01-08T04:28:05.802Z,1001.96
2023-01-08T04:29:05.822Z,1001.92
2023-01-08T04:30:05.821Z,1001.86
2023-01-08T04:31:05.910Z,1001.84
2023-01-08T04:32:05.844Z,1001.79
2023-01-08T04:33:05.857Z,1001.79
2023-01-08T04:34:05.862Z,1001.74
2023-01-08T04:35:05.878Z,1001.76
2023-01-08T04:36:05.891Z,1001.74
2023-01-08T04:37:05.895Z,1001.76
2023-01-08T04:38:05.912Z,1001.71
2023-01-08T04:39:05.918Z,1001.72
2023-01-08T04:40:05.922Z,1001.71
2023-01-08T04:41:05.936Z,1001.70
2023-01-08T04:42:05.945Z,1001.70
2023-01-08T04:43:05.952Z,1001.64
2023-01-08T04:44:05.964Z,1001.62
2023-01-08T04:45:05.976Z,1001.62
2023-01-08T04:46:06.018Z,1001.60
2023-01-08T04:47:06.008Z,1001.55
2023-01-08T04:48:06.008Z,1001.57
2023-01-08T04:49:06.027Z,1001.58
2023-01-08T04:50:06.023Z,1001.62
2023-01-08T04:51:06.034Z,1001.63
2023-01-08T04:52:06.059Z,1001.68
2023-01-08T04:53:06.074Z,1001.69
2023-01-08T04:54:06.065Z,1001.62
2023-01-08T04:55:06.083Z,1001.65
2023-01-08T04:56:06.103Z,1001.73
2023-01-08T04:57:06.097Z,1001.75
2023-01-08T04:58:06.114Z,1001.74
2023-01-08T04:59:06.117Z,1001.72
2023-01-08T05:00:06.139Z,1001.68
2023-01-08T05:01:06.148Z,1001.67
2023-01-08T05:02:06.222Z,1001.61
2023-01-08T05:03:06.224Z,1001.60
2023-01-08T05:04:06.179Z,1001.63
2023-01-08T05:05:06.176Z,1001.60
2023-01-08T05:06:06.187Z,1001.51
2023-01-08T05:07:06.195Z,1001.45
2023-01-08T05:08:06.204Z,1001.49
2023-01-08T05:09:06.219Z,1001.60
2023-01-08T05:10:06.230Z,1001.65
2023-01-08T05:11:06.236Z,1001.66
2023-01-08T05:12:06.251Z,1001.61
2023-01-08T05:13:06.262Z,1001.56
2023-01-08T05:14:06.270Z,1001.51
2023-01-08T05:15:06.285Z,1001.51
2023-01-08T05:16:06.337Z,1001.52
2023-01-08T05:17:06.301Z,1001.56
2023-01-08T05:18:06.348Z,1001.51
2023-01-08T05:19:06.334Z,1001.50
2023-01-08T05:20:06.333Z,1001.47
2023-01-08T05:21:06.358Z,1001.47
2023-01-08T05:22:06.363Z,1001.49
2023-01-08T05:23:06.365Z,1001.46
2023-01-08T05:24:06.373Z,1001.49
2023-01-08T05:25:06.384Z,1001.48
2023-01-08T05:26:06.421Z,1001.46
2023-01-08T05:27:06.408Z,1001.44
2023-01-08T05:28:06.415Z,1001.45
2023-01-08T05:29:06.427Z,1001.43
2023-01-08T05:30:06.452Z,1001.44
2023-01-08T05:31:06.543Z,1001.42
2023-01-08T05:32:06.457Z,1001.37
2023-01-08T05:33:06.479Z,1001.32
2023-01-08T05:34:06.488Z,1001.36
2023-01-08T05:35:06.491Z,1001.40
2023-01-08T05:36:06.504Z,1001.39
2023-01-08T05:37:06.511Z,1001.37
2023-01-08T05:38:06.522Z,1001.38
2023-01-08T05:39:06.536Z,1001.30
2023-01-08T05:40:06.542Z,1001.32
2023-01-08T05:41:06.551Z,1001.30
2023-01-08T05:42:06.574Z,1001.29
2023-01-08T05:43:06.577Z,1001.30
2023-01-08T05:44:06.590Z,1001.32
2023-01-08T05:45:06.614Z,1001.29
2023-01-08T05:46:06.672Z,1001.28
2023-01-08T05:47:06.623Z,1001.26
2023-01-08T05:48:06.639Z,1001.18
2023-01-08T05:49:06.641Z,1001.22
2023-01-08T05:50:06.660Z,1001.19
2023-01-08T05:51:06.669Z,1001.23
2023-01-08T05:52:06.675Z,1001.29
2023-01-08T05:53:06.694Z,1001.27
2023-01-08T05:54:06.711Z,1001.24
2023-01-08T05:55:06.708Z,1001.27
2023-01-08T05:56:08.898Z,1001.25
2023-01-08T05:57:06.730Z,1001.20
2023-01-08T05:58:06.743Z,1001.24
2023-01-08T05:59:06.759Z,1001.17
2023-01-08T06:00:06.762Z,1001.17
2023-01-08T06:01:06.779Z,1001.21
2023-01-08T06:02:06.787Z,1001.19
2023-01-08T06:03:06.902Z,1001.19
2023-01-08T06:04:06.879Z,1001.13
2023-01-08T06:05:06.821Z,1001.14
2023-01-08T06:06:06.829Z,1001.11
2023-01-08T06:07:06.851Z,1001.16
2023-01-08T06:08:08.510Z,1001.17
2023-01-08T06:09:06.865Z,1001.16
2023-01-08T06:10:06.881Z,1001.17
2023-01-08T06:11:06.915Z,1001.17
2023-01-08T06:12:06.906Z,1001.15
2023-01-08T06:13:06.914Z,1001.13
2023-01-08T06:14:06.927Z,1001.09
2023-01-08T06:15:06.940Z,1001.13
2023-01-08T06:16:06.988Z,1001.09
2023-01-08T06:17:06.971Z,1001.11
2023-01-08T06:18:06.973Z,1001.05
2023-01-08T06:19:06.980Z,1001.02
2023-01-08T06:20:07.012Z,1001.02
2023-01-08T06:21:07.012Z,1000.97
2023-01-08T06:22:07.013Z,1000.99
2023-01-08T06:23:07.028Z,1001.06
2023-01-08T06:24:07.039Z,1001.02
2023-01-08T06:25:07.055Z,1001.06
2023-01-08T06:26:07.059Z,1001.06
2023-01-08T06:27:07.079Z,1001.05
2023-01-08T06:28:07.107Z,1001.02
2023-01-08T06:29:07.104Z,1000.99
2023-01-08T06:30:07.108Z,1001.03
2023-01-08T06:31:07.191Z,1001.00
2023-01-08T06:32:07.137Z,1001.02
2023-01-08T06:33:07.145Z,1001.03
2023-01-08T06:34:07.164Z,1000.99
2023-01-08T06:35:07.165Z,1000.99
2023-01-08T06:36:07.173Z,1001.00
2023-01-08T06:37:07.190Z,1000.99
2023-01-08T06:38:07.203Z,1000.99
2023-01-08T06:39:07.211Z,1000.98
2023-01-08T06:40:07.223Z,1001.04
2023-01-08T06:41:07.235Z,1001.01
2023-01-08T06:42:07.253Z,1001.03
2023-01-08T06:43:07.262Z,1001.04
2023-01-08T06:44:07.280Z,1001.01
2023-01-08T06:45:07.291Z,1001.01
2023-01-08T06:46:07.355Z,1000.96
2023-01-08T06:47:07.307Z,1000.94
2023-01-08T06:48:07.323Z,1001.01
2023-01-08T06:49:07.339Z,1000.96
2023-01-08T06:50:07.357Z,1000.97
2023-01-08T06:51:07.353Z,1000.99
2023-01-08T06:52:07.369Z,1001.00
2023-01-08T06:53:07.378Z,1001.00
2023-01-08T06:54:07.389Z,1001.00
2023-01-08T06:55:07.396Z,1001.02
2023-01-08T06:56:07.425Z,1001.01
2023-01-08T06:57:07.422Z,1000.95
2023-01-08T06:58:07.441Z,1001.01
2023-01-08T06:59:07.448Z,1000.99
2023-01-08T07:00:07.471Z,1001.08
2023-01-08T07:01:07.485Z,1001.00
2023-01-08T07:02:07.593Z,1001.01
2023-01-08T07:03:07.536Z,1001.04
2023-01-08T07:04:07.509Z,1001.03
2023-01-08T07:05:07.521Z,1001.00
2023-01-08T07:06:07.540Z,1001.01
2023-01-08T07:07:07.559Z,1000.98
2023-01-08T07:08:07.560Z,1000.97
2023-01-08T07:09:07.570Z,1000.97
2023-01-08T07:10:07.583Z,1000.97
2023-01-08T07:11:07.596Z,1000.98
2023-01-08T07:12:07.603Z,1000.94
2023-01-08T07:13:07.619Z,1000.95
2023-01-08T07:14:07.650Z,1000.97
2023-01-08T07:15:07.639Z,1000.97
2023-01-08T07:16:07.700Z,1000.98
2023-01-08T07:17:07.664Z,1000.97
2023-01-08T07:18:07.677Z,1001.01
2023-01-08T07:19:07.700Z,1001.02
2023-01-08T07:20:07.708Z,1000.98
2023-01-08T07:21:07.712Z,1001.00
2023-01-08T07:22:07.724Z,1001.03
2023-01-08T07:23:07.744Z,1001.01
2023-01-08T07:24:07.746Z,1001.05
2023-01-08T07:25:07.757Z,1001.06
2023-01-08T07:26:07.774Z,1001.12
2023-01-08T07:27:07.790Z,1001.18
2023-01-08T07:28:07.797Z,1001.18
2023-01-08T07:29:07.823Z,1001.21
2023-01-08T07:30:11.021Z,1001.23
2023-01-08T07:31:07.873Z,1001.24
2023-01-08T07:32:07.844Z,1001.20
2023-01-08T07:33:07.860Z,1001.22
2023-01-08T07:34:07.872Z,1001.25
2023-01-08T07:35:07.890Z,1001.25
2023-01-08T07:36:07.897Z,1001.25
2023-01-08T07:37:07.906Z,1001.28
2023-01-08T07:38:07.919Z,1001.25
2023-01-08T07:39:07.932Z,1001.28
2023-01-08T07:40:07.942Z,1001.24
2023-01-08T07:41:07.955Z,1001.24
2023-01-08T07:42:07.973Z,1001.24
2023-01-08T07:43:08.004Z,1001.24
2023-01-08T07:44:07.989Z,1001.22
2023-01-08T07:45:08.008Z,1001.19
2023-01-08T07:46:08.031Z,1001.19
2023-01-08T07:47:08.026Z,1001.19
2023-01-08T07:48:08.034Z,1001.23
2023-01-08T07:49:08.055Z,1001.19
2023-01-08T07:50:08.060Z,1001.16
2023-01-08T07:51:08.072Z,1001.19
2023-01-08T07:52:08.084Z,1001.17
2023-01-08T07:53:08.096Z,1001.16
2023-01-08T07:54:08.108Z,1001.14
2023-01-08T07:55:08.124Z,1001.20
2023-01-08T07:56:08.127Z,1001.16
2023-01-08T07:57:08.154Z,1001.10
2023-01-08T07:58:08.158Z,1001.15
2023-01-08T07:59:08.167Z,1001.09
2023-01-08T08:00:08.178Z,1001.08
2023-01-08T08:01:08.227Z,1001.06
2023-01-08T08:02:08.313Z,1001.10
2023-01-08T08:03:08.279Z,1001.02
2023-01-08T08:04:08.226Z,1001.02
2023-01-08T08:05:08.242Z,1001.06
2023-01-08T08:06:08.249Z,1001.01
2023-01-08T08:07:08.267Z,1000.98
2023-01-08T08:08:08.275Z,1001.04
2023-01-08T08:09:08.334Z,1000.96
2023-01-08T08:10:08.299Z,1000.97
2023-01-08T08:11:08.308Z,1000.97
2023-01-08T08:12:08.323Z,1000.95
2023-01-08T08:13:08.335Z,1001.03
2023-01-08T08:14:08.349Z,1001.02
2023-01-08T08:15:08.373Z,1001.07
2023-01-08T08:16:08.414Z,1001.12
2023-01-08T08:17:08.385Z,1001.15
2023-01-08T08:18:08.393Z,1001.09
2023-01-08T08:19:08.403Z,1001.10
2023-01-08T08:20:08.415Z,1001.12
2023-01-08T08:21:08.425Z,1001.07
2023-01-08T08:22:08.438Z,1001.11
2023-01-08T08:23:08.451Z,1001.06
2023-01-08T08:24:08.464Z,1001.08
2023-01-08T08:25:08.478Z,1001.03
2023-01-08T08:26:08.504Z,1000.99
2023-01-08T08:27:08.500Z,1001.00
2023-01-08T08:28:08.510Z,1000.99
2023-01-08T08:29:08.523Z,1000.95
2023-01-08T08:30:08.539Z,1000.92
2023-01-08T08:31:08.597Z,1000.91
2023-01-08T08:32:08.560Z,1000.89
2023-01-08T08:33:08.573Z,1000.87
2023-01-08T08:34:08.580Z,1000.86
2023-01-08T08:35:08.594Z,1000.85
2023-01-08T08:36:08.612Z,1000.87
2023-01-08T08:37:08.617Z,1000.85
2023-01-08T08:38:08.634Z,1000.82
2023-01-08T08:39:08.640Z,1000.81
2023-01-08T08:40:08.668Z,1000.79
2023-01-08T08:41:08.662Z,1000.77
2023-01-08T08:42:08.676Z,1000.81
2023-01-08T08:43:08.687Z,1000.81
2023-01-08T08:44:08.698Z,1000.78
2023-01-08T08:45:08.727Z,1000.78
2023-01-08T08:46:08.728Z,1000.80
2023-01-08T08:47:08.741Z,1000.79
2023-01-08T08:48:08.745Z,1000.80
2023-01-08T08:49:08.760Z,1000.82
2023-01-08T08:50:08.771Z,1000.81
2023-01-08T08:51:08.784Z,1000.82
2023-01-08T08:52:08.794Z,1000.83
2023-01-08T08:53:08.808Z,1000.79
2023-01-08T08:54:08.818Z,1000.78
2023-01-08T08:55:08.833Z,1000.76
2023-01-08T08:56:08.846Z,1000.79
2023-01-08T08:57:08.859Z,1000.76
2023-01-08T08:58:08.867Z,1000.73
2023-01-08T08:59:08.883Z,1000.70
2023-01-08T09:00:08.903Z,1000.74
2023-01-08T09:01:08.942Z,1000.69
2023-01-08T09:02:09.136Z,1000.66
2023-01-08T09:03:09.032Z,1000.65
2023-01-08T09:04:08.943Z,1000.62
2023-01-08T09:05:08.953Z,1000.63
2023-01-08T09:06:08.973Z,1000.58
2023-01-08T09:07:08.982Z,1000.58
2023-01-08T09:08:08.997Z,1000.54
2023-01-08T09:09:09.003Z,1000.45
2023-01-08T09:10:09.014Z,1000.45
2023-01-08T09:11:09.036Z,1000.41
2023-01-08T09:12:09.082Z,1000.35
2023-01-08T09:13:09.063Z,1000.35
2023-01-08T09:14:09.062Z,1000.31
2023-01-08T09:15:09.077Z,1000.32
2023-01-08T09:16:09.127Z,1000.29
2023-01-08T09:17:09.097Z,1000.33
2023-01-08T09:18:09.116Z,1000.35
2023-01-08T09:19:09.128Z,1000.42
2023-01-08T09:20:09.138Z,1000.40
2023-01-08T09:21:09.151Z,1000.41
2023-01-08T09:22:09.157Z,1000.44
2023-01-08T09:23:09.186Z,1000.39
2023-01-08T09:24:09.185Z,1000.41
2023-01-08T09:25:09.205Z,1000.39
2023-01-08T09:26:09.211Z,1000.44
2023-01-08T09:27:11.082Z,1000.53
2023-01-08T09:28:09.236Z,1000.57
2023-01-08T09:29:09.256Z,1000.58
2023-01-08T09:30:09.266Z,1000.63
2023-01-08T09:31:09.328Z,1000.62
2023-01-08T09:32:09.299Z,1000.65
2023-01-08T09:33:09.313Z,1000.64
2023-01-08T09:34:09.313Z,1000.65
2023-01-08T09:35:09.341Z,1000.57
2023-01-08T09:36:09.342Z,1000.59
2023-01-08T09:37:09.347Z,1000.60
2023-01-08T09:38:09.364Z,1000.67
2023-01-08T09:39:09.385Z,1000.69
2023-01-08T09:40:09.390Z,1000.70
2023-01-08T09:41:09.402Z,1000.68
2023-01-08T09:42:09.415Z,1000.72
2023-01-08T09:43:09.429Z,1000.72
2023-01-08T09:44:09.451Z,1000.76
2023-01-08T09:45:09.462Z,1000.74
2023-01-08T09:46:09.463Z,1000.79
2023-01-08T09:47:09.479Z,1000.80
2023-01-08T09:48:09.487Z,1000.86
2023-01-08T09:49:09.519Z,1000.90
2023-01-08T09:50:09.515Z,1000.93
2023-01-08T09:51:09.533Z,1000.78
2023-01-08T09:52:09.537Z,1000.93
2023-01-08T09:53:09.554Z,1000.94
2023-01-08T09:54:09.565Z,1000.97
2023-01-08T09:55:09.592Z,1000.85
2023-01-08T09:56:10.775Z,1000.87
2023-01-08T09:57:09.605Z,1000.85
2023-01-08T09:58:09.613Z,1000.85
2023-01-08T09:59:09.627Z,1000.85
2023-01-08T10:00:09.638Z,1000.73
2023-01-08T10:01:09.714Z,1000.82
2023-01-08T10:02:09.726Z,1000.75
2023-01-08T10:03:09.676Z,1000.75
2023-01-08T10:04:09.695Z,1000.73
2023-01-08T10:05:09.702Z,1000.72
2023-01-08T10:06:09.721Z,1000.72
2023-01-08T10:07:09.726Z,1000.71
2023-01-08T10:08:09.737Z,1000.70
2023-01-08T10:09:09.756Z,1000.74
2023-01-08T10:10:09.761Z,1000.73
2023-01-08T10:11:09.805Z,1000.68
2023-01-08T10:12:09.785Z,1000.61
2023-01-08T10:13:09.797Z,1000.58
2023-01-08T10:14:09.809Z,1000.61
2023-01-08T10:15:09.826Z,1000.57
2023-01-08T10:16:09.857Z,1000.59
2023-01-08T10:17:11.656Z,1000.51
2023-01-08T10:18:09.859Z,1000.48
2023-01-08T10:19:09.869Z,1000.49
2023-01-08T10:20:09.901Z,1000.50
2023-01-08T10:21:09.894Z,1000.45
2023-01-08T10:22:09.928Z,1000.43
2023-01-08T10:23:09.919Z,1000.48
2023-01-08T10:24:09.932Z,1000.51
2023-01-08T10:25:09.945Z,1000.46
2023-01-08T10:26:09.954Z,1000.47
2023-01-08T10:27:09.974Z,1000.52
2023-01-08T10:28:09.978Z,1000.51
2023-01-08T10:29:09.992Z,1000.49
2023-01-08T10:30:10.002Z,1000.43
2023-01-08T10:31:10.048Z,1000.44
2023-01-08T10:32:10.029Z,1000.48
2023-01-08T10:33:10.049Z,1000.51
2023-01-08T10:34:10.052Z,1000.47
2023-01-08T10:35:10.065Z,1000.43
2023-01-08T10:36:10.083Z,1000.39
2023-01-08T10:37:10.091Z,1000.39
2023-01-08T10:38:10.116Z,1000.35
2023-01-08T10:39:10.117Z,1000.33
2023-01-08T10:40:10.124Z,1000.28
2023-01-08T10:41:10.144Z,1000.23
2023-01-08T10:42:10.150Z,1000.23
2023-01-08T10:43:10.165Z,1000.29
2023-01-08T10:44:10.174Z,1000.29
2023-01-08T10:45:10.190Z,1000.28
2023-01-08T10:46:10.252Z,1000.31
2023-01-08T10:47:10.210Z,1000.34
2023-01-08T10:48:10.224Z,1000.35
2023-01-08T10:49:10.231Z,1000.31
2023-01-08T10:50:10.247Z,1000.29
2023-01-08T10:51:10.261Z,1000.32
2023-01-08T10:52:10.269Z,1000.32
2023-01-08T10:53:10.289Z,1000.29
2023-01-08T10:54:10.295Z,1000.28
2023-01-08T10:55:10.308Z,1000.27
2023-01-08T10:56:10.320Z,1000.24
2023-01-08T10:57:10.333Z,1000.29
2023-01-08T10:58:10.345Z,1000.25
2023-01-08T10:59:10.359Z,1000.23
2023-01-08T11:00:10.371Z,1000.18
2023-01-08T11:01:10.502Z,1000.21
2023-01-08T11:02:10.471Z,1000.20
2023-01-08T11:03:10.409Z,1000.14
2023-01-08T11:04:10.421Z,1000.17
2023-01-08T11:05:10.439Z,1000.20
2023-01-08T11:06:10.444Z,1000.18
2023-01-08T11:07:10.460Z,1000.14
2023-01-08T11:08:10.479Z,1000.14
2023-01-08T11:09:10.488Z,1000.12
2023-01-08T11:10:10.495Z,1000.09
2023-01-08T11:11:10.507Z,1000.11
2023-01-08T11:12:10.531Z,1000.08
2023-01-08T11:13:10.530Z,1000.06
2023-01-08T11:14:10.543Z,1000.10
2023-01-08T11:15:10.557Z,1000.11
2023-01-08T11:16:10.755Z,1000.11
2023-01-08T11:17:10.581Z,1000.15
2023-01-08T11:18:10.599Z,1000.11
2023-01-08T11:19:10.607Z,1000.08
2023-01-08T11:20:10.625Z,1000.02
2023-01-08T11:21:10.639Z,1000.03
2023-01-08T11:22:10.648Z,999.99
2023-01-08T11:23:10.660Z,999.96
2023-01-08T11:24:10.675Z,999.93
2023-01-08T11:25:11.768Z,999.92
2023-01-08T11:26:10.699Z,999.89
2023-01-08T11:27:10.714Z,999.85
2023-01-08T11:28:10.726Z,999.84
2023-01-08T11:29:10.744Z,999.82
2023-01-08T11:30:10.752Z,999.78
2023-01-08T11:31:10.803Z,999.77
2023-01-08T11:32:10.788Z,999.75
2023-01-08T11:33:10.796Z,999.72
2023-01-08T11:34:10.805Z,999.72
2023-01-08T11:35:10.841Z,999.75
2023-01-08T11:36:10.831Z,999.75
2023-01-08T11:37:10.847Z,999.74
2023-01-08T11:38:10.862Z,999.73
2023-01-08T11:39:10.879Z,999.76
2023-01-08T11:40:10.884Z,999.74
2023-01-08T11:41:10.899Z,999.75
2023-01-08T11:42:10.911Z,999.78
2023-01-08T11:43:10.926Z,999.85
2023-01-08T11:44:10.939Z,999.85
2023-01-08T11:45:10.951Z,999.85
2023-01-08T11:46:10.967Z,999.81
2023-01-08T11:47:10.979Z,999.77
2023-01-08T11:48:11.783Z,999.78
2023-01-08T11:49:11.018Z,999.74
2023-01-08T11:50:11.021Z,999.68
2023-01-08T11:51:11.038Z,999.67
2023-01-08T11:52:11.047Z,999.66
2023-01-08T11:53:11.061Z,999.61
2023-01-08T11:54:12.196Z,999.62
2023-01-08T11:55:11.094Z,999.66
2023-01-08T11:56:11.102Z,999.65
2023-01-08T11:57:11.118Z,999.64
2023-01-08T11:58:11.139Z,999.63
2023-01-08T11:59:11.160Z,999.66
2023-01-08T12:00:12.588Z,999.60
2023-01-08T12:01:11.262Z,999.58
2023-01-08T12:02:11.206Z,999.56
2023-01-08T12:03:11.227Z,999.49
2023-01-08T12:04:11.209Z,999.53
2023-01-08T12:05:11.227Z,999.47
2023-01-08T12:06:11.238Z,999.49
2023-01-08T12:07:11.252Z,999.48